Time;durP1;ratioP1;P1;durP2;ratioP2;P2;SDS_P1;SDS_P2;PMS_P1;PMS_P2;Temp;Humidity;BMP_temperature;BMP_pressure;BME280_temperature;BME280_humidity;BME280_pressure;Samples;Min_cycle;Max_cycle;Signal;HPM_P1;HPM_P2
2023/07/23 00:01:30;;;;;;;;;3.33;2.33;;;;;22.98;40.23;100719.47;4958192;28;45392;-67
2023/07/23 00:03:55;;;;;;;;;1.00;1.00;;;;;23.11;40.23;100738.44;4958492;28;45322;-68
2023/07/23 00:06:21;;;;;;;;;3.00;3.00;;;;;23.05;40.34;100731.63;4958058;28;45399;-68
2023/07/23 00:08:53;;;;;;;;;3.00;2.67;;;;;22.95;40.22;100714.28;4958275;28;45336;-68
2023/07/23 00:11:18;;;;;;;;;3.33;3.33;;;;;23.04;40.53;100728.09;4958106;28;46299;-67
2023/07/23 00:13:44;;;;;;;;;5.33;2.00;;;;;23.04;40.74;100725.41;4958353;28;45365;-68
2023/07/23 00:16:09;;;;;;;;;3.00;3.00;;;;;23.02;40.62;100727.28;4956480;28;45541;-71
2023/07/23 00:18:35;;;;;;;;;4.67;2.67;;;;;23.02;40.63;100724.63;4958355;28;45691;-70
2023/07/23 00:21:01;;;;;;;;;3.00;3.00;;;;;23.00;41.06;100726.50;4958210;28;46055;-71
2023/07/23 00:23:26;;;;;;;;;3.00;2.00;;;;;22.77;41.11;100689.34;4958475;28;45265;-72
2023/07/23 00:25:52;;;;;;;;;4.00;2.00;;;;;22.83;41.31;100711.28;4959676;28;45393;-71
2023/07/23 00:28:17;;;;;;;;;3.00;2.00;;;;;22.81;41.18;100721.16;4958252;28;45531;-70
2023/07/23 00:30:43;;;;;;;;;2.67;2.67;;;;;22.81;41.34;100714.97;4956825;28;46200;-72
2023/07/23 00:33:08;;;;;;;;;2.33;2.33;;;;;22.78;41.33;100716.00;4958305;28;45266;-71
2023/07/23 00:35:34;;;;;;;;;3.00;3.00;;;;;22.68;41.77;100711.16;4956701;28;45472;-70
2023/07/23 00:38:00;;;;;;;;;3.00;2.00;;;;;22.52;41.75;100698.56;4974066;28;45562;-71
2023/07/23 00:40:32;;;;;;;;;3.67;3.00;;;;;22.46;41.89;100687.31;4958783;28;45624;-71
2023/07/23 00:42:57;;;;;;;;;4.00;4.00;;;;;22.43;42.34;100689.19;4957468;28;45765;-71
2023/07/23 00:45:24;;;;;;;;;4.67;3.00;;;;;22.53;42.26;100713.63;4958886;28;46022;-70
2023/07/23 00:47:49;;;;;;;;;3.00;3.00;;;;;22.51;42.31;100703.97;4958116;28;45376;-71
2023/07/23 00:50:16;;;;;;;;;2.33;2.33;;;;;22.44;42.77;100704.25;4958166;28;45670;-70
2023/07/23 00:52:42;;;;;;;;;3.00;3.00;;;;;22.26;43.09;100694.47;4954426;28;45433;-73
2023/07/23 00:55:09;;;;;;;;;4.33;2.33;;;;;22.27;43.34;100693.53;4958875;28;45508;-73
2023/07/23 00:57:34;;;;;;;;;4.00;3.00;;;;;22.18;43.61;100686.78;4957213;28;45480;-72
2023/07/23 01:00:00;;;;;;;;;5.33;3.00;;;;;22.08;43.69;100665.97;4957471;28;46191;-72
2023/07/23 01:02:26;;;;;;;;;4.33;3.67;;;;;22.30;43.59;100685.38;4971659;28;45484;-71
2023/07/23 01:04:53;;;;;;;;;2.33;2.33;;;;;22.29;43.87;100688.13;4956665;28;45342;-70
2023/07/23 01:07:19;;;;;;;;;3.00;3.00;;;;;22.31;43.80;100686.25;4957998;28;45320;-71
2023/07/23 01:09:47;;;;;;;;;3.33;2.67;;;;;22.30;43.59;100690.72;4957357;28;45457;-71
2023/07/23 01:12:14;;;;;;;;;5.00;2.67;;;;;22.10;43.91;100656.09;4952529;28;45347;-71
2023/07/23 01:14:40;;;;;;;;;2.33;2.33;;;;;22.17;44.24;100671.72;4955178;28;45391;-71
2023/07/23 01:17:11;;;;;;;;;3.00;3.00;;;;;22.11;44.29;100668.47;4958747;28;45423;-71
2023/07/23 01:19:36;;;;;;;;;2.00;2.00;;;;;21.99;44.05;100644.09;4957687;28;46821;-72
2023/07/23 01:22:05;;;;;;;;;5.67;3.00;;;;;22.19;44.07;100677.88;4955577;28;45374;-71
2023/07/23 01:24:31;;;;;;;;;3.00;3.00;;;;;22.10;44.69;100662.28;4957344;28;45392;-72
2023/07/23 01:26:56;;;;;;;;;5.00;4.00;;;;;21.88;44.85;100634.88;4967905;28;45427;-71
2023/07/23 01:29:22;;;;;;;;;5.00;3.67;;;;;21.94;44.80;100650.59;4955114;28;45242;-71
2023/07/23 01:31:48;;;;;;;;;6.33;3.33;;;;;21.88;45.46;100654.44;4951725;28;45432;-71
2023/07/23 01:34:14;;;;;;;;;5.00;3.67;;;;;21.88;45.23;100651.78;4957590;28;45381;-71
2023/07/23 01:36:40;;;;;;;;;1.67;1.67;;;;;21.93;45.16;100649.75;4957811;28;45349;-69
2023/07/23 01:39:06;;;;;;;;;3.33;2.33;;;;;21.95;45.64;100641.69;4943192;28;45488;-72
2023/07/23 01:41:32;;;;;;;;;3.33;3.33;;;;;21.93;45.48;100630.22;4973549;28;45639;-72
2023/07/23 01:44:00;;;;;;;;;3.33;2.67;;;;;22.00;45.76;100639.66;4959892;28;45365;-70
2023/07/23 01:46:25;;;;;;;;;3.67;3.67;;;;;21.96;45.85;100636.25;4960491;28;45431;-71
2023/07/23 01:48:51;;;;;;;;;5.00;3.33;;;;;21.84;46.03;100628.00;4959898;28;46145;-71
2023/07/23 01:51:16;;;;;;;;;5.00;3.33;;;;;21.91;46.09;100634.75;4960255;28;45290;-72
2023/07/23 01:53:42;;;;;;;;;3.00;3.00;;;;;21.87;46.38;100628.69;4962527;28;45416;-70
2023/07/23 01:56:08;;;;;;;;;4.00;4.00;;;;;21.81;46.25;100621.84;4946259;28;45450;-71
2023/07/23 01:58:33;;;;;;;;;3.67;3.00;;;;;21.80;46.62;100632.59;4959759;28;46186;-71
2023/07/23 02:01:04;;;;;;;;;4.00;3.00;;;;;21.74;46.35;100619.56;4960268;28;45286;-71
2023/07/23 02:03:30;;;;;;;;;3.67;3.67;;;;;21.77;46.28;100617.59;4961734;28;45559;-68
2023/07/23 02:05:57;;;;;;;;;3.00;3.00;;;;;21.67;46.63;100604.78;4960829;28;45350;-71
2023/07/23 02:08:23;;;;;;;;;3.33;3.33;;;;;21.76;46.45;100626.53;4960394;28;45357;-73
2023/07/23 02:10:48;;;;;;;;;5.33;5.33;;;;;21.77;47.03;100628.25;4960590;28;45381;-72
2023/07/23 02:13:14;;;;;;;;;4.00;3.67;;;;;21.51;47.16;100577.97;4957646;28;45528;-73
2023/07/23 02:15:39;;;;;;;;;3.00;3.00;;;;;21.75;46.93;100613.28;4955623;28;45451;-72
2023/07/23 02:18:05;;;;;;;;;6.00;3.33;;;;;21.83;46.89;100627.13;4964185;28;46645;-71
2023/07/23 02:20:31;;;;;;;;;3.33;3.33;;;;;21.75;47.32;100613.28;4965773;28;45416;-72
2023/07/23 02:22:57;;;;;;;;;5.00;3.33;;;;;21.76;47.39;100623.03;4966217;28;45281;-72
2023/07/23 02:25:22;;;;;;;;;2.67;2.67;;;;;21.69;47.17;100609.09;4967324;28;45413;-72
2023/07/23 02:27:49;;;;;;;;;4.67;3.00;;;;;21.73;47.45;100615.13;4962644;28;46631;-72
2023/07/23 02:30:15;;;;;;;;;5.00;3.33;;;;;21.80;47.46;100620.09;4950033;28;44755;-72
2023/07/23 02:32:43;;;;;;;;;2.67;2.67;;;;;21.62;47.25;100582.78;4961953;28;45356;-71
2023/07/23 02:35:08;;;;;;;;;5.67;3.33;;;;;21.80;47.48;100616.59;4962665;28;45447;-70
2023/07/23 02:37:38;;;;;;;;;4.67;4.33;;;;;21.60;47.92;100588.19;4966510;28;45930;-70
2023/07/23 02:40:04;;;;;;;;;4.00;4.00;;;;;21.50;48.16;100573.59;4962386;28;45371;-70
2023/07/23 02:42:30;;;;;;;;;5.33;4.00;;;;;21.59;48.25;100608.66;4961332;28;45611;-72
2023/07/23 02:44:55;;;;;;;;;2.67;2.67;;;;;21.54;48.58;100613.31;4961109;28;45408;-73
2023/07/23 02:47:21;;;;;;;;;3.67;2.67;;;;;21.56;48.75;100608.78;4977578;28;46401;-72
2023/07/23 02:49:47;;;;;;;;;4.33;2.33;;;;;21.57;48.76;100609.66;4962428;28;45818;-69
2023/07/23 02:52:12;;;;;;;;;5.33;3.33;;;;;21.43;48.74;100596.09;4963107;28;45519;-73
2023/07/23 02:54:38;;;;;;;;;3.00;2.67;;;;;21.49;48.81;100609.13;4961909;28;45680;-71
2023/07/23 02:57:04;;;;;;;;;3.33;3.00;;;;;21.39;48.82;100588.25;4963715;28;45590;-71
2023/07/23 02:59:29;;;;;;;;;3.33;3.33;;;;;21.51;49.03;100618.78;4961660;28;45382;-71
2023/07/23 03:01:55;;;;;;;;;6.00;4.00;;;;;21.50;49.00;100609.09;4959535;28;45300;-73
2023/07/23 03:04:25;;;;;;;;;2.67;2.67;;;;;21.57;48.71;100607.00;4959824;28;45322;-71
2023/07/23 03:06:52;;;;;;;;;3.33;3.33;;;;;21.58;48.80;100608.72;4958819;28;45987;-72
2023/07/23 03:09:17;;;;;;;;;3.00;3.00;;;;;21.62;48.95;100609.44;4959576;28;45750;-71
2023/07/23 03:11:43;;;;;;;;;2.00;2.00;;;;;21.51;48.97;100607.28;4959717;28;45624;-71
2023/07/23 03:14:09;;;;;;;;;6.00;3.00;;;;;21.47;49.15;100601.19;4960172;28;45476;-71
2023/07/23 03:16:34;;;;;;;;;5.33;4.33;;;;;21.42;49.41;100595.22;4957466;28;47771;-71
2023/07/23 03:19:00;;;;;;;;;6.33;4.00;;;;;21.49;49.70;100603.81;4960109;28;45480;-71
2023/07/23 03:21:25;;;;;;;;;6.67;3.00;;;;;21.49;49.92;100611.81;4960467;28;45481;-70
2023/07/23 03:23:51;;;;;;;;;3.33;3.00;;;;;21.47;50.16;100609.19;4959377;28;45338;-69
2023/07/23 03:26:16;;;;;;;;;3.33;3.33;;;;;21.40;50.48;100599.75;4959167;28;45315;-71
2023/07/23 03:28:42;;;;;;;;;5.00;4.67;;;;;21.41;50.95;100596.16;4958770;28;46059;-70
2023/07/23 03:31:07;;;;;;;;;3.67;3.00;;;;;21.32;50.80;100592.06;4958897;28;45376;-71
2023/07/23 03:33:33;;;;;;;;;3.33;3.33;;;;;21.22;50.93;100577.44;4973708;28;46686;-69
2023/07/23 03:35:58;;;;;;;;;4.00;4.00;;;;;21.13;51.13;100575.19;4958492;28;46079;-69
2023/07/23 03:38:24;;;;;;;;;3.33;3.33;;;;;21.31;51.02;100602.81;4958256;28;45463;-69
2023/07/23 03:40:50;;;;;;;;;3.00;3.00;;;;;21.38;50.89;100602.47;4958959;28;45541;-68
2023/07/23 03:43:21;;;;;;;;;3.67;3.33;;;;;21.34;50.86;100592.03;4957980;28;45459;-69
2023/07/23 03:45:47;;;;;;;;;5.00;4.33;;;;;21.50;51.08;100597.56;4958361;28;46944;-68
2023/07/23 03:48:12;;;;;;;;;4.00;4.00;;;;;21.50;50.87;100598.41;4959743;28;45402;-68
2023/07/23 03:50:38;;;;;;;;;5.33;4.00;;;;;21.42;50.65;100579.25;4958227;28;45412;-68
2023/07/23 03:53:04;;;;;;;;;4.33;4.33;;;;;21.51;50.66;100600.13;4958649;28;45467;-70
2023/07/23 03:55:29;;;;;;;;;3.33;3.33;;;;;21.54;50.69;100589.34;4957846;28;45397;-69
2023/07/23 03:57:55;;;;;;;;;6.00;5.00;;;;;21.56;50.89;100586.59;4957976;28;45528;-69
2023/07/23 04:00:21;;;;;;;;;5.33;4.33;;;;;21.45;51.15;100589.78;4958741;28;45448;-71
2023/07/23 04:02:46;;;;;;;;;4.33;3.67;;;;;21.44;51.05;100569.38;4958536;28;45868;-72
2023/07/23 04:05:12;;;;;;;;;6.00;4.33;;;;;21.49;51.30;100578.03;4957845;28;45455;-71
2023/07/23 04:07:49;;;;;;;;;5.67;4.33;;;;;21.44;51.20;100558.72;4958866;28;45535;-71
2023/07/23 04:10:15;;;;;;;;;5.00;4.00;;;;;21.38;51.43;100551.84;4958710;28;45365;-71
2023/07/23 04:12:40;;;;;;;;;6.67;4.67;;;;;21.47;51.57;100577.22;4962811;28;45523;-70
2023/07/23 04:15:06;;;;;;;;;7.00;4.00;;;;;21.38;51.81;100557.19;4956791;28;47794;-68
2023/07/23 04:17:32;;;;;;;;;4.00;4.00;;;;;21.31;52.05;100568.19;4957150;28;45771;-69
2023/07/23 04:19:57;;;;;;;;;5.67;4.67;;;;;21.31;52.11;100560.22;4952681;28;45374;-70
2023/07/23 04:22:23;;;;;;;;;6.00;4.67;;;;;21.27;52.27;100562.13;4960058;28;45396;-70
2023/07/23 04:24:48;;;;;;;;;5.67;4.67;;;;;21.22;52.41;100552.63;4947412;28;45489;-70
2023/07/23 04:27:14;;;;;;;;;4.33;4.00;;;;;21.30;52.21;100571.78;4950585;28;45365;-70
2023/07/23 04:29:41;;;;;;;;;6.67;4.33;;;;;21.37;52.30;100562.56;4953571;28;45590;-68
2023/07/23 04:32:07;;;;;;;;;6.33;4.33;;;;;21.21;52.36;100554.41;4957043;28;45604;-70
2023/07/23 04:34:32;;;;;;;;;8.00;5.00;;;;;21.23;52.63;100559.66;4957638;28;46477;-70
2023/07/23 04:36:58;;;;;;;;;4.00;4.00;;;;;21.11;53.08;100559.28;4959196;28;45223;-69
2023/07/23 04:39:24;;;;;;;;;4.67;4.33;;;;;20.97;53.48;100545.72;4958296;28;45441;-70
2023/07/23 04:41:50;;;;;;;;;5.33;5.33;;;;;20.84;53.93;100549.88;4957907;28;45502;-69
2023/07/23 04:44:15;;;;;;;;;4.00;4.00;;;;;20.92;53.88;100569.00;4958127;28;46330;-72
2023/07/23 04:46:41;;;;;;;;;6.33;4.00;;;;;20.78;53.98;100556.31;4958096;28;45578;-69
2023/07/23 04:49:06;;;;;;;;;5.33;5.00;;;;;20.70;54.73;100564.63;4972990;28;45408;-70
2023/07/23 04:51:32;;;;;;;;;5.00;3.00;;;;;20.66;54.58;100562.16;4974116;28;45621;-73
2023/07/23 04:53:57;;;;;;;;;6.00;4.00;;;;;20.70;54.44;100563.75;4970536;28;46308;-71
2023/07/23 04:56:23;;;;;;;;;9.50;5.50;;;;;20.64;54.89;100562.22;4972464;28;45451;-72
2023/07/23 04:58:48;;;;;;;;;5.67;4.33;;;;;20.58;54.92;100566.94;4967274;28;45496;-72
2023/07/23 05:01:14;;;;;;;;;6.00;5.33;;;;;20.50;55.15;100543.28;4975822;28;45435;-70
2023/07/23 05:03:43;;;;;;;;;3.33;3.33;;;;;20.50;55.21;100545.94;4969283;28;45551;-70
2023/07/23 05:06:09;;;;;;;;;4.67;4.67;;;;;20.54;54.80;100559.03;4952901;28;45221;-72
2023/07/23 05:08:37;;;;;;;;;4.33;4.33;;;;;20.50;55.26;100564.56;4970512;28;45365;-70
2023/07/23 05:11:04;;;;;;;;;4.00;4.00;;;;;20.41;55.61;100563.16;4968291;28;46203;-71
2023/07/23 05:13:30;;;;;;;;;4.00;4.00;;;;;20.44;55.86;100556.84;4972651;28;45912;-70
2023/07/23 05:16:00;;;;;;;;;5.00;3.00;;;;;20.61;54.94;100564.16;4973565;28;45442;-70
2023/07/23 05:18:26;;;;;;;;;5.33;5.33;;;;;20.68;55.19;100561.16;4974807;28;45619;-71
2023/07/23 05:20:52;;;;;;;;;5.00;5.00;;;;;20.69;55.18;100562.91;4966334;28;45613;-69
2023/07/23 05:23:18;;;;;;;;;4.33;4.00;;;;;20.77;54.92;100554.59;4970440;28;46243;-70
2023/07/23 05:25:44;;;;;;;;;4.00;4.00;;;;;20.86;54.92;100556.00;4965641;28;45533;-70
2023/07/23 05:28:11;;;;;;;;;4.00;4.00;;;;;20.84;54.54;100529.44;4959432;28;45512;-70
2023/07/23 05:30:36;;;;;;;;;4.67;4.33;;;;;20.91;55.12;100538.00;4928172;28;45484;-71
2023/07/23 05:33:02;;;;;;;;;6.00;4.00;;;;;20.85;55.25;100535.59;4954471;28;45942;-72
2023/07/23 05:35:30;;;;;;;;;5.00;4.33;;;;;20.88;55.37;100541.69;4965390;28;45451;-71
2023/07/23 05:37:56;;;;;;;;;5.33;4.33;;;;;20.88;55.68;100549.66;4969261;28;45508;-71
2023/07/23 05:40:22;;;;;;;;;6.00;5.00;;;;;20.83;55.68;100550.78;4972906;28;45546;-71
2023/07/23 05:42:55;;;;;;;;;4.33;4.33;;;;;20.75;55.90;100536.00;4950372;28;48010;-70
2023/07/23 05:45:22;;;;;;;;;7.00;4.33;;;;;20.87;55.83;100529.28;4949269;28;45407;-73
2023/07/23 05:47:49;;;;;;;;;5.33;4.33;;;;;20.84;55.56;100529.44;4954082;28;45446;-70
2023/07/23 05:50:14;;;;;;;;;5.00;4.33;;;;;20.70;56.34;100527.38;4958065;28;45402;-70
2023/07/23 05:52:46;;;;;;;;;5.00;5.00;;;;;20.77;56.54;100540.41;4942401;28;46332;-71
2023/07/23 05:55:11;;;;;;;;;5.00;4.67;;;;;20.56;56.91;100527.09;4941687;28;45418;-71
2023/07/23 05:57:37;;;;;;;;;5.33;5.33;;;;;20.68;56.88;100542.53;4948511;28;45345;-72
2023/07/23 06:00:03;;;;;;;;;7.00;5.00;;;;;20.66;57.19;100549.72;4943801;28;45404;-70
2023/07/23 06:02:38;;;;;;;;;3.33;3.33;;;;;20.60;57.23;100538.47;4943713;28;45597;-71
2023/07/23 06:05:03;;;;;;;;;6.00;4.67;;;;;20.15;56.85;100439.25;4950990;28;45572;-70
2023/07/23 06:07:29;;;;;;;;;5.33;5.33;;;;;20.77;57.08;100551.06;4946428;28;45306;-72
2023/07/23 06:09:54;;;;;;;;;7.00;4.33;;;;;20.81;56.62;100529.56;4942742;28;45741;-71
2023/07/23 06:12:20;;;;;;;;;4.33;4.33;;;;;20.98;56.37;100547.47;4942021;28;45509;-70
2023/07/23 06:14:46;;;;;;;;;3.67;3.67;;;;;21.13;56.50;100543.25;4942415;28;45543;-71
2023/07/23 06:17:17;;;;;;;;;5.00;5.00;;;;;21.07;56.38;100541.72;4957134;28;45482;-71
2023/07/23 06:19:42;;;;;;;;;7.00;5.67;;;;;20.99;56.61;100538.53;4941403;28;45434;-70
2023/07/23 06:22:08;;;;;;;;;4.33;4.33;;;;;21.06;56.54;100542.66;4940852;28;45471;-76
2023/07/23 06:24:33;;;;;;;;;5.67;5.33;;;;;21.08;56.59;100534.59;4941023;28;45419;-68
2023/07/23 06:26:59;;;;;;;;;9.00;6.00;;;;;21.09;56.21;100545.16;4941304;28;45327;-71
2023/07/23 06:29:26;;;;;;;;;9.00;8.00;;;;;21.12;56.19;100541.53;4940818;28;45420;-69
2023/07/23 06:31:52;;;;;;;;;8.00;6.67;;;;;21.10;56.01;100533.59;4956053;28;45347;-68
2023/07/23 06:34:19;;;;;;;;;4.00;4.00;;;;;20.90;56.40;100513.16;4959794;28;45488;-68
2023/07/23 06:36:46;;;;;;;;;8.33;6.33;;;;;21.14;56.48;100551.16;4951970;28;45308;-69
2023/07/23 06:39:12;;;;;;;;;7.00;5.00;;;;;21.12;56.30;100529.06;4979176;28;45606;-66
2023/07/23 06:41:41;;;;;;;;;6.33;4.33;;;;;21.16;56.49;100548.41;4956782;28;45907;-66
2023/07/23 06:44:07;;;;;;;;;5.67;4.33;;;;;21.20;56.14;100563.34;4958016;28;45529;-69
2023/07/23 06:46:52;;;;;;;;;3.33;3.33;;;;;21.20;56.39;100562.47;5465318;23;46725;-64
2023/07/23 06:49:17;;;;;;;;;5.00;4.00;;;;;20.82;57.25;100523.31;4932019;28;45675;-66
2023/07/23 06:51:43;;;;;;;;;7.33;7.00;;;;;21.02;56.76;100556.16;4985951;23;46862;-65
2023/07/23 06:56:43;;;;;;;;;6.00;5.00;;;;;21.06;57.15;100555.09;5211393;23;46266;-62
2023/07/23 06:59:09;;;;;;;;;5.00;5.00;;;;;21.06;56.92;100563.09;4946310;28;45717;-64
2023/07/23 07:01:35;;;;;;;;;5.00;4.00;;;;;20.94;57.13;100546.72;4947992;28;46116;-70
2023/07/23 07:04:00;;;;;;;;;7.33;5.67;;;;;20.93;57.00;100536.16;4960394;28;45403;-74
2023/07/23 07:06:26;;;;;;;;;7.00;4.00;;;;;20.94;56.64;100537.88;4951726;28;45523;-72
2023/07/23 07:08:51;;;;;;;;;4.33;4.33;;;;;21.07;56.90;100541.72;4960780;28;45445;-70
2023/07/23 07:11:17;;;;;;;;;4.33;4.00;;;;;20.93;56.95;100534.34;4960392;28;46108;-70
2023/07/23 07:13:42;;;;;;;;;4.00;4.00;;;;;21.04;56.87;100551.63;4950117;28;45388;-69
2023/07/23 07:16:10;;;;;;;;;7.33;4.33;;;;;21.05;57.05;100554.25;4956965;28;45491;-74
2023/07/23 07:18:35;;;;;;;;;8.33;4.67;;;;;21.06;56.62;100539.97;4959525;28;45528;-75
2023/07/23 07:21:02;;;;;;;;;5.00;4.00;;;;;21.22;56.33;100534.84;4958269;28;45254;-73
2023/07/23 07:23:31;;;;;;;;;4.67;3.67;;;;;21.34;56.01;100539.59;4957395;28;45397;-69
2023/07/23 07:26:00;;;;;;;;;7.00;5.33;;;;;21.37;55.89;100547.44;4952842;28;45465;-71
2023/07/23 07:28:26;;;;;;;;;3.67;3.67;;;;;21.44;55.57;100540.06;4959374;28;45300;-68
2023/07/23 07:31:00;;;;;;;;;6.00;6.00;;;;;21.51;55.46;100538.00;4949810;28;46245;-72
2023/07/23 07:33:26;;;;;;;;;4.00;4.00;;;;;21.51;55.65;100540.66;4957889;28;45257;-69
2023/07/23 07:36:00;;;;;;;;;4.67;4.67;;;;;21.55;55.66;100532.44;4955089;28;45519;-70
2023/07/23 07:38:27;;;;;;;;;5.00;5.00;;;;;21.53;55.27;100520.13;4958875;28;45511;-72
2023/07/23 07:40:53;;;;;;;;;6.00;3.67;;;;;21.75;54.98;100531.50;4953844;28;47923;-71
2023/07/23 07:43:19;;;;;;;;;5.00;5.00;;;;;21.93;54.55;100543.09;4952326;28;45989;-72
2023/07/23 07:45:49;;;;;;;;;4.33;4.00;;;;;22.01;54.39;100524.03;4956691;28;45483;-68
2023/07/23 07:48:15;;;;;;;;;5.33;4.67;;;;;22.21;53.76;100550.66;4971877;28;45511;-74
2023/07/23 07:50:41;;;;;;;;;5.00;3.67;;;;;22.22;53.96;100556.84;4956409;28;47082;-76
2023/07/23 07:53:07;;;;;;;;;8.67;6.33;;;;;22.21;54.05;100553.31;4958179;28;45581;-77
2023/07/23 07:55:40;;;;;;;;;6.33;5.33;;;;;22.32;53.69;100546.56;4958176;28;45412;-77
2023/07/23 07:58:05;;;;;;;;;7.00;6.00;;;;;22.48;53.38;100557.34;4956902;28;45471;-76
2023/07/23 08:00:31;;;;;;;;;8.67;6.00;;;;;22.61;52.73;100553.09;4958914;28;46101;-75
2023/07/23 08:02:57;;;;;;;;;4.67;4.67;;;;;22.72;52.76;100564.09;4959642;28;45564;-77
2023/07/23 08:05:23;;;;;;;;;5.67;5.67;;;;;22.75;52.23;100555.94;4958408;28;45452;-77
2023/07/23 08:07:50;;;;;;;;;10.67;5.67;;;;;22.82;52.50;100549.31;4958765;28;45312;-74
2023/07/23 08:10:16;;;;;;;;;5.00;4.00;;;;;23.00;51.86;100557.38;4953175;28;46263;-74
2023/07/23 08:12:43;;;;;;;;;4.00;4.00;;;;;23.11;51.61;100549.63;4946195;28;45460;-72
2023/07/23 08:15:09;;;;;;;;;4.00;3.00;;;;;23.13;51.48;100537.06;4958499;28;45246;-77
2023/07/23 08:17:35;;;;;;;;;5.00;4.33;;;;;23.19;51.53;100559.94;4958238;28;45473;-76
2023/07/23 08:20:03;;;;;;;;;5.00;5.00;;;;;23.21;51.24;100553.56;4958377;28;46125;-78
2023/07/23 08:22:29;;;;;;;;;4.33;4.33;;;;;23.18;51.41;100555.50;4958571;28;45494;-76
2023/07/23 08:24:55;;;;;;;;;6.33;4.33;;;;;23.12;51.30;100550.53;4959095;28;45464;-68
2023/07/23 08:27:22;;;;;;;;;5.00;3.00;;;;;22.94;51.96;100553.16;4958537;28;45555;-74
2023/07/23 08:29:47;;;;;;;;;6.67;4.00;;;;;22.96;51.40;100542.41;4957899;28;46156;-69
2023/07/23 08:32:16;;;;;;;;;6.00;4.00;;;;;23.08;51.63;100561.34;4958434;28;45441;-70
2023/07/23 08:34:43;;;;;;;;;5.33;3.67;;;;;23.09;51.59;100556.88;4958326;28;45530;-71
2023/07/23 08:37:10;;;;;;;;;3.00;3.00;;;;;23.12;51.93;100563.88;4957723;28;45419;-73
2023/07/23 08:39:36;;;;;;;;;5.67;4.00;;;;;23.11;51.44;100562.97;4956610;28;47047;-72
2023/07/23 08:42:14;;;;;;;;;4.00;3.33;;;;;23.13;51.75;100555.75;4959343;28;45477;-69
2023/07/23 08:45:16;;;;;;;;;5.00;3.67;;;;;23.14;51.75;100556.66;4950935;28;45321;-73
2023/07/23 08:47:46;;;;;;;;;4.33;4.33;;;;;23.10;51.73;100537.22;4966689;28;45335;-73
2023/07/23 08:50:13;;;;;;;;;3.67;3.00;;;;;23.29;51.38;100562.00;4958301;28;46355;-77
2023/07/23 08:52:41;;;;;;;;;6.00;4.67;;;;;23.33;51.49;100565.41;4958062;28;45515;-76
2023/07/23 08:55:07;;;;;;;;;4.33;3.33;;;;;23.28;51.93;100559.44;4958674;28;45386;-75
2023/07/23 08:57:33;;;;;;;;;4.00;4.00;;;;;23.28;51.53;100562.97;4959350;28;45792;-77
2023/07/23 09:00:01;;;;;;;;;3.67;3.33;;;;;23.37;51.63;100560.72;4959274;28;45952;-76
2023/07/23 09:02:28;;;;;;;;;3.33;3.33;;;;;23.38;51.32;100567.81;4957633;28;45402;-74
2023/07/23 09:04:54;;;;;;;;;4.67;4.67;;;;;23.37;52.66;100560.72;4957863;28;45543;-74
2023/07/23 09:07:20;;;;;;;;;5.00;3.00;;;;;23.32;52.95;100538.75;4958318;28;45311;-73
2023/07/23 09:09:49;;;;;;;;;3.33;3.33;;;;;23.65;52.72;100554.75;4958030;28;46425;-77
2023/07/23 09:12:15;;;;;;;;;4.33;4.33;;;;;23.76;51.76;100555.06;4959536;28;45498;-71
2023/07/23 09:14:42;;;;;;;;;2.33;2.33;;;;;23.91;50.73;100567.53;4960619;28;45353;-77
2023/07/23 09:17:20;;;;;;;;;6.00;5.00;;;;;23.88;50.81;100548.16;4958138;28;45488;-78
2023/07/23 09:19:46;;;;;;;;;4.33;3.67;;;;;23.83;51.02;100558.25;4963642;28;45335;-76
2023/07/23 09:22:12;;;;;;;;;3.67;3.67;;;;;23.83;50.90;100564.47;4962436;28;45320;-76
2023/07/23 09:24:37;;;;;;;;;4.00;3.33;;;;;23.81;50.97;100570.84;4956943;28;45473;-75
2023/07/23 09:27:03;;;;;;;;;7.67;5.33;;;;;23.66;50.99;100560.03;4956085;28;45548;-78
2023/07/23 09:29:37;;;;;;;;;5.33;4.67;;;;;23.61;51.52;100564.75;4955193;28;46787;-77
2023/07/23 09:32:03;;;;;;;;;4.00;4.00;;;;;23.50;52.26;100545.78;4957194;28;45441;-78
2023/07/23 09:34:28;;;;;;;;;6.00;4.00;;;;;23.59;52.49;100585.38;4957742;28;45494;-76
2023/07/23 09:36:54;;;;;;;;;5.00;3.33;;;;;23.63;52.81;100572.69;4957198;28;45498;-77
2023/07/23 09:39:25;;;;;;;;;6.67;4.00;;;;;23.52;52.52;100557.25;4955951;28;46338;-77
2023/07/23 09:41:51;;;;;;;;;5.33;5.00;;;;;23.58;52.34;100574.75;4956651;28;45411;-75
2023/07/23 09:44:17;;;;;;;;;6.67;4.67;;;;;23.60;51.88;100572.84;4951308;28;45925;-67
2023/07/23 09:46:46;;;;;;;;;4.00;3.00;;;;;23.42;52.01;100566.69;4946642;28;45463;-74
2023/07/23 09:49:13;;;;;;;;;4.00;4.00;;;;;23.44;52.19;100586.19;4956720;28;47342;-72
2023/07/23 09:51:39;;;;;;;;;5.00;3.33;;;;;23.36;52.04;100569.72;4958120;28;45327;-75
2023/07/23 09:54:05;;;;;;;;;6.00;5.33;;;;;23.38;52.67;100581.19;4958325;28;45389;-82
2023/07/23 09:56:35;;;;;;;;;4.00;4.00;;;;;23.29;53.07;100582.53;4958770;28;45557;-72
2023/07/23 09:59:02;;;;;;;;;8.00;5.00;;;;;23.17;53.71;100570.69;4954472;28;45968;-75
2023/07/23 10:01:30;;;;;;;;;3.67;3.67;;;;;23.32;53.73;100595.72;4957637;28;45427;-75
2023/07/23 10:03:58;;;;;;;;;3.00;3.00;;;;;23.21;53.84;100577.59;4958039;28;45372;-72
2023/07/23 10:06:24;;;;;;;;;3.67;3.67;;;;;23.26;54.07;100586.22;4958927;28;45478;-78
2023/07/23 10:08:50;;;;;;;;;4.33;4.33;;;;;23.24;54.07;100595.28;4960729;28;45432;-72
2023/07/23 10:11:18;;;;;;;;;3.00;3.00;;;;;23.29;54.45;100618.13;4959664;28;45390;-73
2023/07/23 10:13:44;;;;;;;;;4.67;4.67;;;;;23.19;54.21;100589.31;4959798;28;45340;-76
2023/07/23 10:16:37;;;;;;;;;4.00;3.00;;;;;23.14;55.21;100621.63;4964671;28;45535;-69
2023/07/23 10:19:04;;;;;;;;;7.00;5.67;;;;;22.98;55.96;100608.19;4963615;28;46528;-70
2023/07/23 10:21:33;;;;;;;;;6.00;4.33;;;;;22.98;56.17;100618.88;4958496;28;45552;-69
2023/07/23 10:24:00;;;;;;;;;7.00;4.00;;;;;23.02;56.23;100617.78;4958115;28;45687;-72
2023/07/23 10:26:30;;;;;;;;;5.00;5.00;;;;;23.08;56.87;100621.94;4959746;28;45427;-73
2023/07/23 10:29:09;;;;;;;;;4.33;4.33;;;;;23.12;56.68;100622.66;4959527;28;45403;-72
2023/07/23 10:31:35;;;;;;;;;5.67;5.00;;;;;23.18;56.96;100619.63;4958028;28;45668;-73
2023/07/23 10:34:01;;;;;;;;;8.00;5.00;;;;;23.12;57.50;100623.50;4959456;28;45692;-76
2023/07/23 10:36:26;;;;;;;;;8.00;5.00;;;;;23.11;57.36;100621.75;4957926;28;45474;-72
2023/07/23 10:39:14;;;;;;;;;6.00;5.67;;;;;23.06;57.81;100623.81;4959443;28;46152;-77
2023/07/23 10:41:55;;;;;;;;;6.67;6.33;;;;;23.04;58.06;100623.03;4959751;28;45582;-76
2023/07/23 10:44:27;;;;;;;;;7.67;6.33;;;;;22.99;58.00;100625.97;4952880;28;45338;-76
2023/07/23 10:46:53;;;;;;;;;8.33;6.33;;;;;22.94;58.66;100622.59;4960862;28;45321;-70
2023/07/23 10:49:21;;;;;;;;;5.67;5.67;;;;;22.84;59.05;100632.88;4959980;28;45594;-70
2023/07/23 10:51:50;;;;;;;;;6.00;5.33;;;;;22.81;59.52;100629.53;4958930;28;45862;-70
2023/07/23 10:54:18;;;;;;;;;6.33;6.00;;;;;22.80;60.40;100631.34;4957766;28;45424;-69
2023/07/23 10:56:43;;;;;;;;;5.00;4.33;;;;;22.77;60.18;100638.63;4957582;28;45518;-69
2023/07/23 10:59:19;;;;;;;;;4.33;4.33;;;;;22.71;60.54;100631.81;4959246;28;45328;-69
2023/07/23 11:01:48;;;;;;;;;5.33;5.33;;;;;22.46;61.07;100602.78;4957701;28;45306;-77
2023/07/23 11:04:23;;;;;;;;;7.33;5.33;;;;;22.49;60.85;100633.78;4960532;28;45340;-77
2023/07/23 11:07:06;;;;;;;;;7.00;5.33;;;;;22.49;61.68;100631.13;4959955;28;45475;-80
2023/07/23 11:09:37;;;;;;;;;10.33;5.00;;;;;22.45;62.53;100635.75;4958161;28;48124;-74
2023/07/23 11:12:05;;;;;;;;;5.67;5.00;;;;;22.33;62.62;100618.53;4957706;28;45482;-77
2023/07/23 11:14:32;;;;;;;;;6.00;6.00;;;;;22.40;62.88;100616.41;4957249;28;45396;-77
2023/07/23 11:17:03;;;;;;;;;6.67;5.33;;;;;22.58;62.37;100630.66;4959389;28;45631;-76
2023/07/23 11:19:30;;;;;;;;;6.00;4.33;;;;;22.75;61.74;100632.50;4958619;28;47558;-73
2023/07/23 11:21:58;;;;;;;;;4.00;4.00;;;;;22.72;62.50;100625.50;4955915;28;45336;-79
2023/07/23 11:24:27;;;;;;;;;5.67;4.33;;;;;22.83;62.45;100631.19;4957484;28;45621;-75
2023/07/23 11:26:58;;;;;;;;;3.33;3.33;;;;;22.91;62.99;100629.91;4958994;28;45502;-78